Time;durP1;ratioP1;P1;durP2;ratioP2;P2;SDS_P1;SDS_P2;PMS_P1;PMS_P2;Temp;Humidity;BMP_temperature;BMP_pressure;BME280_temperature;BME280_humidity;BME280_pressure;Samples;Min_cycle;Max_cycle;Signal;HPM_P1;HPM_P2
2022/07/30 00:01:29;;;;;;;14.70;8.10;;;17.50;99.90;;;;;;5070358;28;20060;-61
2022/07/30 00:03:54;;;;;;;20.10;8.45;;;17.30;99.90;;;;;;5070520;28;20031;-59
2022/07/30 00:06:20;;;;;;;15.25;9.10;;;17.50;99.90;;;;;;5071663;28;20032;-59
2022/07/30 00:08:46;;;;;;;13.90;9.20;;;17.70;99.90;;;;;;5071987;28;20037;-59
2022/07/30 00:11:11;;;;;;;15.73;9.93;;;17.60;99.90;;;;;;5070541;28;20040;-59
2022/07/30 00:13:37;;;;;;;17.50;10.23;;;17.50;99.90;;;;;;5071418;28;20098;-59
2022/07/30 00:16:03;;;;;;;24.38;11.38;;;17.50;99.90;;;;;;5070275;28;20092;-58
2022/07/30 00:18:29;;;;;;;17.90;10.00;;;17.30;99.90;;;;;;5071394;28;20040;-59
2022/07/30 00:20:54;;;;;;;22.05;11.20;;;17.20;99.90;;;;;;5071460;28;20417;-59
2022/07/30 00:23:20;;;;;;;19.30;10.23;;;17.10;99.90;;;;;;5070039;28;20103;-59
2022/07/30 00:25:45;;;;;;;14.32;10.05;;;16.80;99.90;;;;;;5071585;28;20028;-59
2022/07/30 00:28:11;;;;;;;18.95;10.80;;;16.70;99.90;;;;;;5071706;28;20485;-59
2022/07/30 00:30:39;;;;;;;20.10;11.05;;;16.60;99.90;;;;;;5071486;28;20116;-58
2022/07/30 00:33:05;;;;;;;18.10;11.05;;;16.80;99.90;;;;;;5071491;28;20074;-58
2022/07/30 00:35:31;;;;;;;17.00;10.27;;;16.90;99.90;;;;;;5053581;28;20032;-59
2022/07/30 00:37:56;;;;;;;26.55;11.32;;;16.70;99.90;;;;;;5071529;28;20365;-59
2022/07/30 00:40:22;;;;;;;18.65;11.13;;;16.70;99.90;;;;;;5071367;28;20020;-58
2022/07/30 00:42:48;;;;;;;20.83;11.43;;;16.70;99.90;;;;;;5071561;28;20048;-59
2022/07/30 00:45:16;;;;;;;16.25;10.50;;;16.70;99.90;;;;;;5070626;28;20036;-59
2022/07/30 00:47:42;;;;;;;17.42;10.25;;;16.40;99.90;;;;;;5071226;28;20309;-59
2022/07/30 00:50:10;;;;;;;19.30;12.30;;;16.10;99.90;;;;;;5071332;28;20103;-59
2022/07/30 00:52:38;;;;;;;22.77;12.73;;;15.90;99.90;;;;;;5071142;28;20047;-58
2022/07/30 00:55:05;;;;;;;17.65;12.60;;;15.80;99.90;;;;;;5069854;28;20035;-59
2022/07/30 00:57:31;;;;;;;23.95;13.98;;;15.90;99.90;;;;;;5070924;28;20409;-58
2022/07/30 00:59:57;;;;;;;19.73;13.68;;;16.10;99.90;;;;;;5071128;28;20155;-59
2022/07/30 01:02:23;;;;;;;23.38;14.32;;;16.00;99.90;;;;;;5070854;28;20420;-58
2022/07/30 01:04:48;;;;;;;22.15;12.95;;;16.00;99.90;;;;;;5071412;28;20024;-59
2022/07/30 01:07:14;;;;;;;19.42;11.80;;;15.90;99.90;;;;;;5075028;28;20511;-59
2022/07/30 01:09:39;;;;;;;20.48;12.60;;;15.70;99.90;;;;;;5075342;28;20029;-59
2022/07/30 01:12:08;;;;;;;21.88;14.35;;;15.70;99.90;;;;;;5075042;28;20029;-59
2022/07/30 01:14:35;;;;;;;20.40;14.73;;;15.70;99.90;;;;;;5073696;28;20033;-59
2022/07/30 01:17:01;;;;;;;22.13;15.43;;;15.90;99.90;;;;;;5074970;28;20380;-60
2022/07/30 01:19:47;;;;;;;24.20;13.82;;;15.90;99.90;;;;;;5075190;28;20028;-59
2022/07/30 01:22:28;;;;;;;20.90;13.13;;;15.70;99.90;;;;;;5074775;28;20021;-58
2022/07/30 01:25:10;;;;;;;23.98;14.13;;;15.70;99.90;;;;;;5075246;28;20555;-59
2022/07/30 01:27:43;;;;;;;20.58;14.52;;;15.60;99.90;;;;;;5074813;28;20032;-58
2022/07/30 01:30:10;;;;;;;25.48;14.63;;;15.70;99.90;;;;;;5074873;28;20467;-59
2022/07/30 01:32:40;;;;;;;22.63;14.52;;;15.80;99.90;;;;;;5073623;28;20521;-59
2022/07/30 01:35:08;;;;;;;22.63;14.23;;;15.90;99.90;;;;;;5074775;28;20043;-58
2022/07/30 01:37:35;;;;;;;19.75;14.30;;;16.00;99.90;;;;;;5074519;28;20032;-59
2022/07/30 01:40:02;;;;;;;26.17;14.57;;;16.10;99.90;;;;;;5075037;28;20032;-59
2022/07/30 01:42:29;;;;;;;21.23;14.63;;;16.10;99.90;;;;;;5074209;28;20017;-59
2022/07/30 01:44:56;;;;;;;19.10;14.07;;;16.10;99.90;;;;;;5074471;28;20489;-58
2022/07/30 01:47:24;;;;;;;22.52;15.23;;;16.10;99.90;;;;;;5073964;28;20024;-58
2022/07/30 01:49:52;;;;;;;23.98;16.80;;;16.10;99.90;;;;;;5074346;28;20044;-58
2022/07/30 01:52:19;;;;;;;21.77;17.10;;;16.20;99.90;;;;;;5072891;28;20070;-58
2022/07/30 01:54:47;;;;;;;24.48;17.75;;;16.20;99.90;;;;;;5074138;28;20036;-58
2022/07/30 01:57:15;;;;;;;23.40;17.70;;;16.20;99.90;;;;;;5073823;28;20119;-57
2022/07/30 01:59:44;;;;;;;23.95;17.27;;;16.00;99.90;;;;;;5073322;28;20056;-58
2022/07/30 02:02:10;;;;;;;24.90;17.02;;;16.00;99.90;;;;;;5072770;28;20017;-58
2022/07/30 02:04:36;;;;;;;24.77;17.17;;;16.00;99.90;;;;;;5072715;28;20035;-59
2022/07/30 02:07:03;;;;;;;28.38;17.92;;;16.00;99.90;;;;;;5071850;28;20070;-58
2022/07/30 02:09:34;;;;;;;25.80;17.83;;;16.00;99.90;;;;;;5072999;28;20039;-58
2022/07/30 02:14:53;;;;;;;28.38;17.20;;;15.90;99.90;;;;;;5072441;28;20063;-57
2022/07/30 02:17:27;;;;;;;27.05;18.45;;;15.80;99.90;;;;;;5071958;28;20029;-58
2022/07/30 02:19:56;;;;;;;30.02;19.13;;;15.80;99.90;;;;;;5072698;28;20489;-58
2022/07/30 02:22:24;;;;;;;26.45;18.40;;;16.00;99.90;;;;;;5072661;28;20029;-58
2022/07/30 02:24:50;;;;;;;28.40;18.50;;;15.90;99.90;;;;;;5072233;28;20082;-58
2022/07/30 02:27:22;;;;;;;25.13;18.15;;;15.90;99.90;;;;;;5072398;28;20099;-57
2022/07/30 02:29:50;;;;;;;21.02;16.67;;;15.90;99.90;;;;;;5072381;28;20032;-58
2022/07/30 02:32:19;;;;;;;23.52;17.20;;;15.80;99.90;;;;;;5072407;28;20020;-58
2022/07/30 02:34:47;;;;;;;28.23;18.92;;;15.80;99.90;;;;;;5072216;28;20033;-58
2022/07/30 02:37:14;;;;;;;30.30;18.52;;;16.00;99.90;;;;;;5072179;28;20056;-57
2022/07/30 02:39:41;;;;;;;26.63;18.08;;;16.00;99.90;;;;;;5072621;28;20032;-58
2022/07/30 02:42:08;;;;;;;28.20;19.00;;;15.90;99.90;;;;;;5072042;28;20103;-58
2022/07/30 02:44:37;;;;;;;26.63;18.98;;;16.00;99.90;;;;;;5072256;28;20024;-58
2022/07/30 02:47:04;;;;;;;25.55;19.05;;;16.00;99.90;;;;;;5071853;28;20024;-59
2022/07/30 02:49:32;;;;;;;23.52;18.42;;;16.00;99.90;;;;;;5072386;28;20051;-58
2022/07/30 02:51:59;;;;;;;27.77;19.00;;;16.00;99.90;;;;;;5070677;28;20024;-59
2022/07/30 02:54:27;;;;;;;30.15;18.52;;;16.00;99.90;;;;;;5072230;28;20029;-59
2022/07/30 02:56:53;;;;;;;29.75;17.92;;;15.90;99.90;;;;;;5071816;28;20047;-59
2022/07/30 02:59:20;;;;;;;31.73;19.52;;;15.90;99.90;;;;;;5033171;28;1126269;-58
2022/07/30 03:01:46;;;;;;;25.80;18.45;;;15.90;99.90;;;;;;5073404;28;20021;-58
2022/07/30 03:04:13;;;;;;;25.15;19.65;;;15.80;99.90;;;;;;5072661;28;20024;-59
2022/07/30 03:06:40;;;;;;;30.70;19.40;;;15.80;99.90;;;;;;5072831;28;20032;-58
2022/07/30 03:09:08;;;;;;;26.45;18.38;;;15.80;99.90;;;;;;5072999;28;20486;-59
2022/07/30 03:11:34;;;;;;;38.08;20.20;;;15.70;99.90;;;;;;5072871;28;20024;-58
2022/07/30 03:14:01;;;;;;;23.85;17.77;;;15.60;99.90;;;;;;5072545;28;20028;-58
2022/07/30 03:16:28;;;;;;;27.13;17.75;;;15.60;99.90;;;;;;5072830;28;20039;-58
2022/07/30 03:18:56;;;;;;;21.92;17.60;;;15.50;99.90;;;;;;5072719;28;20029;-59
2022/07/30 03:21:25;;;;;;;25.35;17.58;;;15.40;99.90;;;;;;5071350;28;20033;-59
2022/07/30 03:23:53;;;;;;;27.70;17.60;;;15.30;99.90;;;;;;5072715;28;20100;-58
2022/07/30 03:26:21;;;;;;;28.67;17.33;;;15.30;99.90;;;;;;5072292;28;20020;-58
2022/07/30 03:28:48;;;;;;;28.52;17.88;;;15.30;99.90;;;;;;5071902;28;20079;-59
2022/07/30 03:31:15;;;;;;;21.88;16.33;;;15.40;99.90;;;;;;5072491;28;20063;-58
2022/07/30 03:33:42;;;;;;;21.83;15.77;;;15.40;99.90;;;;;;5072411;28;20024;-59
2022/07/30 03:36:11;;;;;;;20.17;16.92;;;15.40;99.90;;;;;;5072563;28;20041;-58
2022/07/30 03:38:38;;;;;;;25.13;17.73;;;15.40;99.90;;;;;;5072634;28;20036;-59
2022/07/30 03:41:05;;;;;;;23.58;17.13;;;15.30;99.90;;;;;;5072229;28;20094;-58
2022/07/30 03:43:31;;;;;;;23.83;16.63;;;15.30;99.90;;;;;;5072424;28;20038;-59
2022/07/30 03:45:57;;;;;;;22.20;16.50;;;15.30;99.90;;;;;;5072165;28;20024;-59
2022/07/30 03:48:24;;;;;;;22.88;17.02;;;15.20;99.90;;;;;;5072127;28;20404;-58
2022/07/30 03:50:50;;;;;;;23.23;17.08;;;15.20;99.90;;;;;;5071958;28;20178;-59
2022/07/30 03:53:18;;;;;;;23.85;16.55;;;15.10;99.90;;;;;;5071940;28;20095;-59
2022/07/30 03:55:44;;;;;;;24.65;17.90;;;15.10;99.90;;;;;;5072041;28;20035;-59
2022/07/30 03:58:10;;;;;;;27.80;19.70;;;15.10;99.90;;;;;;5071999;28;20020;-59
2022/07/30 04:00:38;;;;;;;26.75;19.85;;;15.20;99.90;;;;;;5070892;28;20504;-58
2022/07/30 04:03:04;;;;;;;28.83;18.27;;;15.40;99.90;;;;;;5072160;28;20039;-59
2022/07/30 04:05:30;;;;;;;26.67;19.10;;;15.50;99.90;;;;;;5070600;28;20469;-58
2022/07/30 04:07:56;;;;;;;22.98;19.92;;;15.60;99.90;;;;;;5070619;28;20037;-58
2022/07/30 04:10:21;;;;;;;26.63;19.42;;;15.60;99.90;;;;;;5071571;28;20036;-58
2022/07/30 04:12:47;;;;;;;27.85;20.23;;;15.60;99.90;;;;;;5071582;28;20043;-58
2022/07/30 04:15:12;;;;;;;28.13;20.45;;;15.70;99.90;;;;;;5071527;28;20035;-58
2022/07/30 04:17:52;;;;;;;25.42;20.48;;;15.80;99.90;;;;;;5070306;28;20025;-58
2022/07/30 04:20:22;;;;;;;32.03;20.60;;;15.70;99.90;;;;;;5071428;28;20048;-58
2022/07/30 04:22:50;;;;;;;34.85;20.65;;;15.70;99.90;;;;;;5071573;28;20056;-59
2022/07/30 04:25:16;;;;;;;28.27;20.08;;;15.80;99.90;;;;;;5071200;28;20032;-58
2022/07/30 04:27:43;;;;;;;22.90;19.80;;;15.80;99.90;;;;;;5071535;28;20025;-58
2022/07/30 04:30:09;;;;;;;27.38;20.90;;;15.80;99.90;;;;;;5071585;28;20430;-59
2022/07/30 04:32:36;;;;;;;25.77;19.83;;;15.80;99.90;;;;;;5069787;28;20024;-59
2022/07/30 04:35:03;;;;;;;27.40;21.40;;;15.80;99.90;;;;;;5071472;28;20056;-58
2022/07/30 04:37:28;;;;;;;28.02;21.08;;;15.80;99.90;;;;;;5071232;28;20032;-58
2022/07/30 04:39:56;;;;;;;29.48;22.23;;;15.80;99.90;;;;;;5071086;28;20594;-58
2022/07/30 04:42:23;;;;;;;30.70;20.77;;;15.80;99.90;;;;;;5071734;28;20500;-59
2022/07/30 04:44:49;;;;;;;30.75;21.55;;;15.80;99.90;;;;;;5071124;28;20029;-58
2022/07/30 04:47:16;;;;;;;26.73;21.42;;;15.90;99.90;;;;;;5071152;28;20032;-58
2022/07/30 04:49:42;;;;;;;26.92;20.55;;;16.10;99.90;;;;;;5071730;28;20028;-58
2022/07/30 04:52:11;;;;;;;27.25;20.08;;;15.90;99.90;;;;;;5071408;28;20075;-59
2022/07/30 04:54:43;;;;;;;27.75;19.67;;;15.80;99.90;;;;;;5071918;28;20124;-60
2022/07/30 04:57:11;;;;;;;22.90;17.80;;;15.80;99.90;;;;;;5070966;28;20020;-59
2022/07/30 04:59:37;;;;;;;23.20;17.38;;;15.70;99.90;;;;;;5071395;28;20049;-59
2022/07/30 05:02:05;;;;;;;19.30;16.10;;;15.70;99.90;;;;;;5071182;28;20435;-59
2022/07/30 05:04:32;;;;;;;22.63;16.10;;;15.60;99.90;;;;;;5071658;28;20437;-59
2022/07/30 05:06:58;;;;;;;19.08;14.48;;;15.50;99.90;;;;;;5071078;28;20017;-59
2022/07/30 05:09:24;;;;;;;17.25;14.80;;;15.50;99.90;;;;;;5071139;28;20485;-60
2022/07/30 05:11:52;;;;;;;19.10;14.70;;;15.60;99.90;;;;;;5070949;28;20032;-59
2022/07/30 05:14:17;;;;;;;20.25;14.70;;;15.40;99.90;;;;;;5071223;28;20032;-59
2022/07/30 05:16:43;;;;;;;20.80;15.07;;;15.30;99.90;;;;;;5070806;28;20035;-58
2022/07/30 05:19:09;;;;;;;18.33;13.88;;;15.10;99.90;;;;;;5070791;28;20497;-57
2022/07/30 05:21:34;;;;;;;16.88;14.70;;;15.00;99.90;;;;;;5070798;28;20470;-58
2022/07/30 05:24:00;;;;;;;21.70;15.52;;;15.00;99.90;;;;;;5070907;28;20109;-58
2022/07/30 05:26:25;;;;;;;21.65;15.00;;;15.00;99.90;;;;;;5070432;28;20107;-58
2022/07/30 05:28:51;;;;;;;19.20;16.42;;;15.10;99.90;;;;;;5070656;28;20400;-58
2022/07/30 05:31:17;;;;;;;18.98;15.90;;;15.20;99.90;;;;;;5070458;28;20549;-58
2022/07/30 05:33:42;;;;;;;22.50;16.25;;;15.40;99.90;;;;;;5070305;28;20031;-58
2022/07/30 05:36:08;;;;;;;18.15;15.63;;;15.50;99.90;;;;;;5070378;28;20036;-58
2022/07/30 05:38:34;;;;;;;19.10;15.73;;;15.30;99.90;;;;;;5070669;28;20115;-57
2022/07/30 05:41:00;;;;;;;19.38;15.77;;;15.30;99.90;;;;;;5070240;28;20025;-56
2022/07/30 05:43:25;;;;;;;23.60;16.27;;;15.40;99.90;;;;;;5070298;28;20073;-56
2022/07/30 05:45:51;;;;;;;19.63;15.73;;;15.60;99.90;;;;;;5070142;28;20037;-56
2022/07/30 05:48:17;;;;;;;23.60;17.02;;;15.50;99.90;;;;;;5070387;28;20131;-56
2022/07/30 05:50:43;;;;;;;20.90;14.98;;;15.70;99.90;;;;;;5069069;28;20090;-56
2022/07/30 05:53:08;;;;;;;18.00;15.02;;;15.70;99.90;;;;;;5073718;28;20386;-56
2022/07/30 05:55:34;;;;;;;18.63;15.80;;;15.80;99.90;;;;;;5073986;28;20029;-56
2022/07/30 05:57:59;;;;;;;24.83;15.40;;;15.80;99.90;;;;;;5073796;28;20121;-56
2022/07/30 06:00:25;;;;;;;18.10;14.43;;;16.00;99.90;;;;;;5072381;28;20037;-57
2022/07/30 06:02:51;;;;;;;18.20;14.45;;;16.20;99.90;;;;;;5073865;28;20020;-56
2022/07/30 06:05:16;;;;;;;19.75;14.85;;;16.30;99.90;;;;;;5073535;28;20108;-57
2022/07/30 06:07:42;;;;;;;22.23;15.70;;;16.40;99.90;;;;;;5073893;28;20074;-56
2022/07/30 06:10:08;;;;;;;17.95;15.07;;;16.40;99.90;;;;;;5073844;28;20445;-56
2022/07/30 06:12:34;;;;;;;19.00;15.43;;;16.40;99.90;;;;;;5073952;28;20021;-56
2022/07/30 06:14:59;;;;;;;19.35;14.90;;;16.40;99.90;;;;;;5074133;28;20349;-58
2022/07/30 06:17:25;;;;;;;20.42;15.40;;;16.50;99.90;;;;;;5073423;28;20032;-57
2022/07/30 06:19:52;;;;;;;17.27;14.73;;;16.70;99.90;;;;;;5072293;28;20405;-56
2022/07/30 06:22:18;;;;;;;20.00;14.43;;;17.00;99.90;;;;;;5073458;28;20536;-57
2022/07/30 06:24:43;;;;;;;20.13;14.50;;;17.20;99.90;;;;;;5073369;28;20021;-57
2022/07/30 06:27:09;;;;;;;16.92;11.98;;;17.40;99.90;;;;;;5072063;28;20035;-56
2022/07/30 06:29:35;;;;;;;15.70;11.07;;;17.70;99.90;;;;;;5073438;28;20024;-56
2022/07/30 06:32:01;;;;;;;14.73;10.23;;;17.80;99.90;;;;;;5072980;28;20025;-57
2022/07/30 06:34:26;;;;;;;16.67;10.38;;;18.00;99.90;;;;;;5055256;28;20029;-56
2022/07/30 06:36:52;;;;;;;14.95;9.30;;;18.10;99.90;;;;;;5073054;28;20069;-57
2022/07/30 06:39:18;;;;;;;15.95;9.52;;;18.20;99.90;;;;;;5073348;28;20020;-62
2022/07/30 06:41:44;;;;;;;21.23;9.73;;;18.40;99.90;;;;;;5073173;28;20032;-59
2022/07/30 06:44:10;;;;;;;16.27;9.95;;;18.60;99.90;;;;;;5073023;28;20037;-59
2022/07/30 06:46:36;;;;;;;16.10;9.52;;;18.80;99.90;;;;;;5071559;28;20028;-59
2022/07/30 06:49:02;;;;;;;14.52;8.68;;;19.00;99.90;;;;;;5073572;28;20381;-58
2022/07/30 06:51:28;;;;;;;14.68;7.53;;;19.20;99.90;;;;;;5072740;28;20028;-59
2022/07/30 06:53:53;;;;;;;14.88;8.15;;;19.20;99.90;;;;;;5072992;28;20324;-59
2022/07/30 06:56:19;;;;;;;13.18;7.82;;;19.30;99.90;;;;;;5072571;28;20397;-59
2022/07/30 06:58:45;;;;;;;13.20;7.97;;;19.50;99.90;;;;;;5072734;28;20503;-58
2022/07/30 07:01:10;;;;;;;12.82;6.72;;;19.70;99.90;;;;;;5072978;28;20071;-58
2022/07/30 07:03:36;;;;;;;14.55;7.05;;;19.90;99.90;;;;;;5071428;28;20025;-59
2022/07/30 07:06:04;;;;;;;12.35;6.47;;;20.20;99.90;;;;;;5072548;28;20070;-59
2022/07/30 07:08:30;;;;;;;14.35;6.53;;;20.00;99.90;;;;;;5072707;28;20137;-59
2022/07/30 07:10:56;;;;;;;13.02;6.35;;;20.40;99.90;;;;;;5072372;28;20104;-59
2022/07/30 07:13:21;;;;;;;13.18;7.20;;;21.60;99.90;;;;;;5072434;28;20112;-59
2022/07/30 07:15:47;;;;;;;10.30;6.88;;;22.80;99.90;;;;;;5072456;28;20032;-60
2022/07/30 07:18:14;;;;;;;16.52;9.38;;;23.90;99.90;;;;;;5072408;28;20477;-60
2022/07/30 07:20:39;;;;;;;17.92;8.57;;;25.20;99.90;;;;;;5072454;28;20134;-60
2022/07/30 07:23:05;;;;;;;22.05;8.40;;;25.70;99.90;;;;;;5072277;28;20461;-61
2022/07/30 07:25:31;;;;;;;21.15;10.98;;;27.20;99.90;;;;;;5071379;28;20036;-61
2022/07/30 07:27:56;;;;;;;17.98;10.85;;;27.90;99.90;;;;;;5072456;28;20035;-61
2022/07/30 07:30:22;;;;;;;24.17;13.25;;;28.40;99.60;;;;;;5072382;28;20433;-60
2022/07/30 07:32:48;;;;;;;22.90;13.95;;;29.10;97.20;;;;;;5071888;28;20032;-60
2022/07/30 07:35:13;;;;;;;13.93;7.75;;;28.80;96.70;;;;;;5071975;28;20363;-60
2022/07/30 07:37:39;;;;;;;19.63;9.07;;;29.00;96.60;;;;;;5071878;28;20025;-60
2022/07/30 07:40:05;;;;;;;15.05;8.30;;;28.90;95.90;;;;;;5072027;28;20036;-61
2022/07/30 07:42:31;;;;;;;27.33;18.45;;;29.60;95.40;;;;;;5071694;28;20096;-61
2022/07/30 07:44:56;;;;;;;25.63;14.55;;;29.90;91.20;;;;;;5071880;28;20067;-61
2022/07/30 07:47:22;;;;;;;25.58;15.05;;;29.00;91.60;;;;;;5071790;28;20108;-61
2022/07/30 07:49:48;;;;;;;24.85;13.88;;;28.70;91.10;;;;;;5072155;28;20032;-61
2022/07/30 07:52:13;;;;;;;17.83;11.60;;;29.00;90.40;;;;;;5071642;28;20020;-61
2022/07/30 07:54:39;;;;;;;11.80;6.32;;;29.40;89.40;;;;;;5071943;28;20024;-61
2022/07/30 07:57:06;;;;;;;7.93;4.57;;;29.90;90.70;;;;;;5071765;28;20515;-61
2022/07/30 07:59:33;;;;;;;7.82;4.13;;;29.30;91.30;;;;;;5071463;28;20047;-61
2022/07/30 08:01:59;;;;;;;11.10;4.30;;;28.80;92.10;;;;;;5071537;28;20024;-61
2022/07/30 08:04:24;;;;;;;10.02;4.68;;;28.40;92.30;;;;;;5071538;28;20031;-61
2022/07/30 08:06:50;;;;;;;10.07;5.07;;;28.30;92.20;;;;;;5071280;28;20025;-61
2022/07/30 08:09:15;;;;;;;9.77;4.18;;;28.80;91.40;;;;;;5071635;28;20060;-60
2022/07/30 08:11:41;;;;;;;8.60;3.42;;;28.90;86.30;;;;;;5071373;28;20115;-61
2022/07/30 08:14:07;;;;;;;8.10;3.20;;;29.00;85.10;;;;;;5071097;28;20033;-60
2022/07/30 08:16:33;;;;;;;5.55;2.85;;;29.10;83.90;;;;;;5071436;28;20166;-61
2022/07/30 08:18:58;;;;;;;8.88;3.00;;;29.00;82.30;;;;;;5071460;28;20035;-61
2022/07/30 08:21:24;;;;;;;8.55;3.15;;;28.70;80.80;;;;;;5071338;28;20028;-61
2022/07/30 08:23:50;;;;;;;7.15;2.67;;;28.30;84.50;;;;;;5071116;28;20012;-61
2022/07/30 08:26:15;;;;;;;9.95;4.07;;;28.60;81.30;;;;;;5071378;28;20554;-61
2022/07/30 08:28:42;;;;;;;6.55;3.80;;;28.40;88.60;;;;;;5071647;28;20104;-61
2022/07/30 08:31:08;;;;;;;7.05;4.07;;;27.90;90.30;;;;;;5071637;28;20484;-61
2022/07/30 08:33:33;;;;;;;8.48;3.55;;;28.40;89.40;;;;;;5069784;28;20032;-61
2022/07/30 08:36:00;;;;;;;7.97;3.70;;;29.40;85.10;;;;;;5071036;28;20029;-61
2022/07/30 08:38:26;;;;;;;5.95;3.20;;;30.50;80.50;;;;;;5071448;28;20082;-61
2022/07/30 08:40:54;;;;;;;6.63;3.10;;;30.70;77.40;;;;;;5070989;28;20028;-61
2022/07/30 08:43:20;;;;;;;7.13;3.03;;;30.50;77.90;;;;;;5069739;28;20107;-61
2022/07/30 08:45:47;;;;;;;6.95;2.67;;;30.10;76.60;;;;;;5070811;28;20032;-61
2022/07/30 08:48:13;;;;;;;7.15;2.88;;;30.30;76.20;;;;;;5070978;28;20025;-62
2022/07/30 08:50:39;;;;;;;4.75;2.55;;;29.90;75.90;;;;;;5070940;28;20037;-61
2022/07/30 08:53:05;;;;;;;3.88;2.30;;;29.50;77.40;;;;;;5071389;28;20032;-61
2022/07/30 08:55:31;;;;;;;4.72;2.60;;;28.40;79.60;;;;;;5071007;28;20036;-61
2022/07/30 08:57:57;;;;;;;4.80;2.15;;;28.00;80.40;;;;;;5071245;28;20040;-61
2022/07/30 09:00:23;;;;;;;10.55;3.25;;;29.40;79.10;;;;;;5070542;28;20085;-61
2022/07/30 09:02:48;;;;;;;10.23;2.67;;;29.20;78.30;;;;;;5070972;28;20028;-61
2022/07/30 09:05:14;;;;;;;6.53;2.55;;;29.20;79.30;;;;;;5070978;28;20447;-61
2022/07/30 09:07:41;;;;;;;5.88;2.70;;;29.40;79.60;;;;;;5070876;28;20021;-61
2022/07/30 09:10:08;;;;;;;7.68;2.67;;;28.60;82.70;;;;;;5070940;28;20409;-59
2022/07/30 09:12:41;;;;;;;5.88;2.97;;;27.10;88.20;;;;;;5070683;28;20036;-59
2022/07/30 09:15:11;;;;;;;5.07;3.10;;;26.80;88.00;;;;;;5070973;28;20189;-59
2022/07/30 09:18:03;;;;;;;6.03;2.22;;;26.90;86.80;;;;;;5070620;28;20087;-59
2022/07/30 09:20:33;;;;;;;5.93;2.75;;;25.80;90.10;;;;;;5069374;28;20521;-59
2022/07/30 09:23:04;;;;;;;5.35;2.28;;;25.70;91.00;;;;;;5070528;28;20074;-59
2022/07/30 09:25:33;;;;;;;3.33;2.00;;;25.80;90.90;;;;;;5070772;28;20385;-59
2022/07/30 09:27:58;;;;;;;3.63;1.80;;;25.80;90.70;;;;;;5074230;28;20024;-58
2022/07/30 09:30:24;;;;;;;5.20;1.73;;;25.50;91.40;;;;;;5074359;28;20032;-59
2022/07/30 09:32:55;;;;;;;5.05;2.15;;;25.30;91.00;;;;;;5074549;28;20104;-59
2022/07/30 09:35:22;;;;;;;6.57;2.13;;;25.90;91.40;;;;;;5074768;28;20074;-59
2022/07/30 09:38:02;;;;;;;6.93;2.00;;;26.20;90.70;;;;;;5074428;28;20079;-59
2022/07/30 09:40:28;;;;;;;7.07;2.45;;;26.80;89.70;;;;;;5074681;28;20020;-59
2022/07/30 09:43:08;;;;;;;7.68;2.22;;;27.70;87.30;;;;;;5073066;28;20024;-59
2022/07/30 09:45:34;;;;;;;5.32;2.28;;;28.70;83.70;;;;;;5074839;28;20028;-59
2022/07/30 09:48:00;;;;;;;7.47;2.55;;;29.10;81.90;;;;;;5074322;28;20074;-59
2022/07/30 09:50:26;;;;;;;4.15;1.98;;;28.80;80.50;;;;;;5074019;28;20577;-59
2022/07/30 09:52:53;;;;;;;5.60;2.45;;;28.80;82.40;;;;;;5074385;28;20055;-59
2022/07/30 09:55:35;;;;;;;4.60;2.03;;;29.00;83.10;;;;;;5074370;28;20512;-59
2022/07/30 09:58:04;;;;;;;6.43;2.03;;;29.00;81.60;;;;;;5074121;28;20107;-59
2022/07/30 10:00:32;;;;;;;6.43;2.28;;;29.00;79.70;;;;;;5074363;28;20035;-59
2022/07/30 10:02:59;;;;;;;10.88;2.67;;;29.30;77.30;;;;;;5073990;28;20407;-59
2022/07/30 10:05:25;;;;;;;4.28;1.92;;;28.90;79.20;;;;;;5072723;28;20025;-59
2022/07/30 10:07:59;;;;;;;3.70;1.95;;;28.40;79.50;;;;;;5074239;28;20100;-59
2022/07/30 10:10:28;;;;;;;5.85;2.60;;;28.30;80.60;;;;;;5073740;28;20037;-59
2022/07/30 10:12:59;;;;;;;3.90;2.05;;;28.50;80.20;;;;;;5073991;28;20047;-59
2022/07/30 10:15:32;;;;;;;5.77;2.20;;;28.80;77.40;;;;;;5073875;28;20111;-59
2022/07/30 10:17:59;;;;;;;5.97;2.33;;;28.90;77.40;;;;;;5074057;28;20056;-59
2022/07/30 10:20:26;;;;;;;6.95;1.98;;;29.40;76.90;;;;;;5073733;28;20032;-59
2022/07/30 10:22:52;;;;;;;7.90;2.50;;;29.90;75.90;;;;;;5073916;28;20024;-59
2022/07/30 10:25:23;;;;;;;4.07;2.33;;;29.90;75.90;;;;;;5073760;28;20032;-62
2022/07/30 10:27:49;;;;;;;5.30;2.03;;;30.90;74.00;;;;;;5073622;28;20038;-62
2022/07/30 10:30:16;;;;;;;4.57;2.20;;;30.90;71.80;;;;;;5073343;28;20044;-62
2022/07/30 10:32:43;;;;;;;4.10;2.13;;;31.40;70.60;;;;;;5055577;28;20035;-62
2022/07/30 10:35:09;;;;;;;4.38;2.20;;;31.40;70.50;;;;;;5073229;28;20432;-62
2022/07/30 10:37:39;;;;;;;5.88;2.22;;;30.20;73.40;;;;;;5072783;28;20093;-62
2022/07/30 10:40:11;;;;;;;4.65;1.90;;;29.80;74.80;;;;;;5073488;28;20024;-59
2022/07/30 10:43:07;;;;;;;3.03;2.00;;;29.40;75.50;;;;;;5073582;28;20028;-60
2022/07/30 10:46:03;;;;;;;6.22;2.00;;;28.30;77.00;;;;;;5073345;28;20485;-59
2022/07/30 10:48:33;;;;;;;5.55;2.25;;;28.00;79.90;;;;;;5073844;28;20106;-60
2022/07/30 10:50:59;;;;;;;4.13;1.95;;;27.60;80.10;;;;;;5071506;28;20032;-60
2022/07/30 10:53:39;;;;;;;7.97;2.28;;;27.80;81.40;;;;;;5073075;28;20564;-60
2022/07/30 10:56:18;;;;;;;4.60;1.80;;;28.30;78.60;;;;;;5073158;28;20056;-61
2022/07/30 10:59:13;;;;;;;5.15;1.70;;;28.50;78.20;;;;;;5072791;28;20133;-60
2022/07/30 11:01:48;;;;;;;2.50;1.38;;;28.30;77.30;;;;;;5067948;28;20501;-61
2022/07/30 11:04:23;;;;;;;2.70;1.60;;;28.00;78.50;;;;;;5072780;28;20024;-61
2022/07/30 11:06:49;;;;;;;5.03;1.95;;;28.10;78.90;;;;;;5072679;28;20025;-62
2022/07/30 11:09:38;;;;;;;3.85;1.73;;;28.30;77.10;;;;;;5072971;28;20047;-61
2022/07/30 11:12:05;;;;;;;3.65;1.60;;;29.80;74.00;;;;;;5072897;28;20032;-62
2022/07/30 11:14:46;;;;;;;2.45;1.35;;;30.50;72.70;;;;;;5072208;28;20036;-61
2022/07/30 11:17:15;;;;;;;3.33;1.60;;;29.90;73.20;;;;;;5072772;28;20028;-61
2022/07/30 11:20:08;;;;;;;2.08;1.35;;;29.00;74.50;;;;;;5073035;28;20032;-62
2022/07/30 11:22:39;;;;;;;3.75;1.70;;;29.50;74.40;;;;;;5072345;28;20021;-61
2022/07/30 11:25:20;;;;;;;3.10;1.20;;;29.10;74.90;;;;;;5072385;28;20032;-61
2022/07/30 11:27:49;;;;;;;3.53;1.60;;;29.70;73.40;;;;;;5072605;28;20021;-64
2022/07/30 11:30:14;;;;;;;4.88;1.40;;;29.90;73.40;;;;;;5072250;28;20163;-61
2022/07/30 11:32:44;;;;;;;3.90;1.30;;;30.30;72.30;;;;;;5072006;28;20024;-61
2022/07/30 11:35:19;;;;;;;6.18;1.17;;;30.10;71.70;;;;;;5072006;28;20037;-62
2022/07/30 11:38:18;;;;;;;4.63;1.25;;;30.10;71.20;;;;;;5072095;28;20028;-61
2022/07/30 11:40:49;;;;;;;4.70;1.45;;;30.20;70.30;;;;;;5072252;28;20037;-62
2022/07/30 11:43:31;;;;;;;3.88;1.13;;;30.30;69.50;;;;;;5072170;28;20021;-62
2022/07/30 11:46:12;;;;;;;3.33;1.17;;;30.50;69.70;;;;;;5072376;28;20434;-62
2022/07/30 11:48:45;;;;;;;2.67;1.47;;;30.90;69.10;;;;;;5071782;28;20384;-61
2022/07/30 11:51:11;;;;;;;4.35;1.45;;;30.30;70.80;;;;;;5072190;28;20036;-61
2022/07/30 11:53:37;;;;;;;2.78;1.30;;;30.10;71.50;;;;;;5071980;28;20024;-61
2022/07/30 11:56:03;;;;;;;3.95;1.30;;;29.90;72.20;;;;;;5071636;28;20458;-61
2022/07/30 11:58:32;;;;;;;3.20;1.33;;;29.00;75.20;;;;;;5071637;28;20165;-61
2022/07/30 12:01:00;;;;;;;6.03;1.30;;;29.10;74.80;;;;;;5070216;28;20024;-61
2022/07/30 12:03:30;;;;;;;5.18;1.40;;;29.30;75.10;;;;;;5071566;28;20056;-61
2022/07/30 12:06:08;;;;;;;1.60;0.77;;;29.40;73.20;;;;;;5071308;28;20032;-61
2022/07/30 12:08:41;;;;;;;1.80;1.10;;;29.40;74.50;;;;;;5071917;28;20024;-61
2022/07/30 12:11:06;;;;;;;2.22;1.10;;;29.10;73.30;;;;;;5071305;28;20028;-60
2022/07/30 12:13:32;;;;;;;2.38;0.93;;;29.00;73.60;;;;;;5070208;28;20107;-60
2022/07/30 12:15:58;;;;;;;2.22;1.30;;;28.20;73.50;;;;;;5071490;28;20412;-60
2022/07/30 12:18:27;;;;;;;3.78;1.45;;;28.20;75.20;;;;;;5071186;28;20111;-61
2022/07/30 12:20:57;;;;;;;3.67;1.23;;;28.50;73.50;;;;;;5071159;28;20035;-61
2022/07/30 12:23:23;;;;;;;4.43;1.17;;;28.70;71.70;;;;;;5071503;28;20112;-61
2022/07/30 12:25:49;;;;;;;2.42;1.17;;;28.40;71.70;;;;;;5070889;28;20100;-61
2022/07/30 12:28:25;;;;;;;4.05;1.27;;;28.40;71.80;;;;;;5071123;28;20032;-61
2022/07/30 12:30:52;;;;;;;2.50;1.10;;;28.60;73.50;;;;;;5071350;28;20507;-61
2022/07/30 12:33:19;;;;;;;1.60;1.20;;;29.20;70.50;;;;;;5071061;28;20104;-61
2022/07/30 12:36:02;;;;;;;4.28;1.23;;;29.00;71.50;;;;;;5070948;28;20390;-60
2022/07/30 12:38:28;;;;;;;2.78;1.10;;;28.60;74.20;;;;;;5071183;28;20378;-60
2022/07/30 12:41:04;;;;;;;3.25;1.20;;;28.50;73.10;;;;;;5071093;28;20066;-60
2022/07/30 12:43:53;;;;;;;2.90;1.10;;;28.00;74.60;;;;;;5071042;28;20393;-61